createdAt,value
2022-09-23T00:00:27.519Z,87.73
2022-09-23T00:01:28.513Z,87.84
2022-09-23T00:02:27.853Z,87.73
2022-09-23T00:03:28.070Z,87.73
2022-09-23T00:04:27.606Z,87.73
2022-09-23T00:05:28.683Z,87.52
2022-09-23T00:06:34.810Z,87.28
2022-09-23T00:07:27.482Z,87.18
2022-09-23T00:08:27.464Z,87.07
2022-09-23T00:09:27.512Z,86.87
2022-09-23T00:10:27.458Z,86.46
2022-09-23T00:11:29.365Z,86.35
2022-09-23T00:12:27.430Z,86.35
2022-09-23T00:13:27.456Z,86.35
2022-09-23T00:14:27.452Z,86.60
2022-09-23T00:15:27.597Z,86.80
2022-09-23T00:16:28.833Z,86.80
2022-09-23T00:17:29.175Z,86.80
2022-09-23T00:18:32.735Z,86.80
2022-09-23T00:19:27.265Z,86.80
2022-09-23T00:20:29.477Z,86.70
2022-09-23T00:21:27.335Z,86.50
2022-09-23T00:22:49.578Z,86.70
2022-09-23T00:23:27.301Z,86.80
2022-09-23T00:24:27.467Z,86.60
2022-09-23T00:25:27.854Z,86.50
2022-09-23T00:26:27.520Z,86.50
2022-09-23T00:27:28.253Z,86.50
2022-09-23T00:28:28.932Z,86.19
2022-09-23T00:29:30.365Z,86.08
2022-09-23T00:30:27.391Z,86.19
2022-09-23T00:31:27.158Z,86.19
2022-09-23T00:32:28.074Z,86.29
2022-09-23T00:33:27.271Z,86.50
2022-09-23T00:34:27.378Z,86.40
2022-09-23T00:35:27.340Z,86.43
2022-09-23T00:36:27.182Z,86.43
2022-09-23T00:37:28.309Z,86.54
2022-09-23T00:38:27.040Z,86.64
2022-09-23T00:39:27.137Z,86.85
2022-09-23T00:40:27.385Z,87.15
2022-09-23T00:41:27.054Z,87.36
2022-09-23T00:42:26.936Z,87.36
2022-09-23T00:43:30.724Z,87.46
2022-09-23T00:44:26.943Z,87.57
2022-09-23T00:45:36.465Z,87.77
2022-09-23T00:46:27.013Z,87.98
2022-09-23T00:47:26.947Z,88.08
2022-09-23T00:48:26.972Z,88.08
2022-09-23T00:49:55.374Z,88.08
2022-09-23T00:50:26.931Z,88.08
2022-09-23T00:51:27.992Z,87.98
2022-09-23T00:52:26.997Z,87.87
2022-09-23T00:53:27.250Z,87.67
2022-09-23T00:54:26.905Z,87.57
2022-09-23T00:55:29.061Z,87.42
2022-09-23T00:56:32.062Z,87.32
2022-09-23T00:57:27.040Z,87.01
2022-09-23T00:58:33.199Z,86.80
2022-09-23T00:59:26.835Z,86.74
2022-09-23T01:00:27.799Z,86.74
2022-09-23T01:01:27.103Z,86.74
2022-09-23T01:02:27.103Z,87.05
2022-09-23T01:03:26.693Z,87.46
2022-09-23T01:04:29.660Z,87.57
2022-09-23T01:05:27.831Z,87.57
2022-09-23T01:06:27.796Z,87.67
2022-09-23T01:07:26.621Z,87.67
2022-09-23T01:08:26.805Z,87.46
2022-09-23T01:09:33.081Z,87.36
2022-09-23T01:10:28.751Z,87.26
2022-09-23T01:11:27.818Z,87.15
2022-09-23T01:12:26.727Z,87.15
2022-09-23T01:13:26.752Z,87.15
2022-09-23T01:14:26.630Z,87.40
2022-09-23T01:15:26.663Z,87.71
2022-09-23T01:16:39.705Z,87.81
2022-09-23T01:17:26.750Z,87.81
2022-09-23T01:18:26.565Z,87.81
2022-09-23T01:19:26.483Z,87.92
2022-09-23T01:20:26.645Z,88.02
2022-09-23T01:21:32.766Z,88.12
2022-09-23T01:22:27.776Z,88.33
2022-09-23T01:23:26.588Z,88.43
2022-09-23T01:24:26.499Z,88.53
2022-09-23T01:25:26.846Z,88.53
2022-09-23T01:26:27.388Z,88.78
2022-09-23T01:27:26.783Z,88.78
2022-09-23T01:28:26.577Z,88.89
2022-09-23T01:29:26.494Z,88.99
2022-09-23T01:30:27.407Z,89.09
2022-09-23T01:31:33.071Z,88.99
2022-09-23T01:32:30.498Z,88.99
2022-09-23T01:33:26.523Z,89.09
2022-09-23T01:34:26.564Z,89.09
2022-09-23T01:35:26.419Z,89.50
2022-09-23T01:36:26.415Z,89.61
2022-09-23T01:37:47.862Z,89.71
2022-09-23T01:38:27.501Z,89.71
2022-09-23T01:39:32.171Z,89.50
2022-09-23T01:40:26.430Z,89.50
2022-09-23T01:41:27.503Z,89.40
2022-09-23T01:42:26.341Z,89.50
2022-09-23T01:43:34.463Z,89.71
2022-09-23T01:44:27.231Z,89.65
2022-09-23T01:45:27.241Z,89.75
2022-09-23T01:46:26.165Z,89.95
2022-09-23T01:47:26.501Z,90.16
2022-09-23T01:48:26.246Z,90.06
2022-09-23T01:49:33.614Z,90.16
2022-09-23T01:50:28.144Z,90.26
2022-09-23T01:51:26.182Z,90.26
2022-09-23T01:52:26.173Z,90.06
2022-09-23T01:53:26.140Z,89.95
2022-09-23T01:54:27.334Z,89.85
2022-09-23T01:55:26.189Z,89.95
2022-09-23T01:56:26.034Z,89.95
2022-09-23T01:57:26.109Z,90.06
2022-09-23T01:58:25.974Z,90.06
2022-09-23T01:59:29.108Z,89.85
2022-09-23T02:00:27.208Z,90.06
2022-09-23T02:01:25.950Z,90.26
2022-09-23T02:02:29.387Z,90.37
2022-09-23T02:03:25.927Z,90.16
2022-09-23T02:04:27.849Z,89.95
2022-09-23T02:05:26.004Z,89.75
2022-09-23T02:06:26.124Z,89.85
2022-09-23T02:07:26.663Z,90.16
2022-09-23T02:08:25.904Z,90.06
2022-09-23T02:09:26.791Z,90.37
2022-09-23T02:10:26.076Z,90.61
2022-09-23T02:11:25.827Z,90.61
2022-09-23T02:12:26.931Z,90.92
2022-09-23T02:13:25.838Z,91.34
2022-09-23T02:14:25.966Z,91.34
2022-09-23T02:15:26.714Z,91.34
2022-09-23T02:16:26.074Z,91.44
2022-09-23T02:17:25.913Z,91.54
2022-09-23T02:18:25.918Z,91.64
2022-09-23T02:19:25.720Z,91.54
2022-09-23T02:20:26.892Z,91.64
2022-09-23T02:21:25.734Z,91.44
2022-09-23T02:22:26.181Z,91.24
2022-09-23T02:23:25.909Z,90.99
2022-09-23T02:24:25.856Z,90.82
2022-09-23T02:25:26.677Z,90.78
2022-09-23T02:26:25.795Z,90.88
2022-09-23T02:27:25.643Z,91.03
2022-09-23T02:28:25.666Z,91.13
2022-09-23T02:29:25.643Z,91.13
2022-09-23T02:30:25.691Z,91.24
2022-09-23T02:31:26.529Z,91.44
2022-09-23T02:32:25.589Z,91.64
2022-09-23T02:33:25.813Z,91.75
2022-09-23T02:34:25.558Z,91.85
2022-09-23T02:35:25.617Z,91.75
2022-09-23T02:36:25.836Z,91.54
2022-09-23T02:37:31.917Z,91.34
2022-09-23T02:38:25.498Z,91.19
2022-09-23T02:39:25.444Z,90.99
2022-09-23T02:40:25.750Z,90.99
2022-09-23T02:41:26.101Z,90.99
2022-09-23T02:42:27.716Z,90.99
2022-09-23T02:43:25.462Z,90.99
2022-09-23T02:44:26.239Z,91.09
2022-09-23T02:45:25.456Z,90.99
2022-09-23T02:46:25.494Z,90.67
2022-09-23T02:47:25.425Z,90.47
2022-09-23T02:48:52.591Z,90.57
2022-09-23T02:49:25.427Z,90.61
2022-09-23T02:50:27.644Z,90.82
2022-09-23T02:51:25.593Z,90.92
2022-09-23T02:52:26.710Z,90.92
2022-09-23T02:53:25.341Z,91.13
2022-09-23T02:54:29.878Z,91.13
2022-09-23T02:55:25.411Z,91.19
2022-09-23T02:56:25.233Z,91.19
2022-09-23T02:57:25.278Z,91.19
2022-09-23T02:58:25.334Z,91.19
2022-09-23T02:59:25.245Z,91.19
2022-09-23T03:00:26.670Z,91.09
2022-09-23T03:01:26.293Z,90.78
2022-09-23T03:02:25.297Z,90.99
2022-09-23T03:03:25.318Z,91.09
2022-09-23T03:04:25.094Z,91.19
2022-09-23T03:05:25.279Z,91.19
2022-09-23T03:06:26.073Z,91.09
2022-09-23T03:07:28.032Z,90.99
2022-09-23T03:08:26.607Z,90.88
2022-09-23T03:09:26.732Z,90.88
2022-09-23T03:10:26.135Z,90.78
2022-09-23T03:11:27.255Z,90.78
2022-09-23T03:12:25.186Z,90.67
2022-09-23T03:13:36.499Z,90.78
2022-09-23T03:14:25.243Z,90.78
2022-09-23T03:15:28.558Z,90.67
2022-09-23T03:16:25.102Z,90.57
2022-09-23T03:17:59.733Z,90.57
2022-09-23T03:18:25.378Z,90.47
2022-09-23T03:19:32.709Z,90.16
2022-09-23T03:20:25.037Z,90.06
2022-09-23T03:22:08.552Z,89.95
2022-09-23T03:23:15.065Z,90.06
2022-09-23T03:24:09.926Z,90.16
2022-09-23T03:25:08.509Z,90.51
2022-09-23T03:26:08.635Z,90.72
2022-09-23T03:27:08.611Z,90.82
2022-09-23T03:28:09.226Z,90.82
2022-09-23T03:29:08.544Z,90.82
2022-09-23T03:30:08.441Z,90.82
2022-09-23T03:31:09.195Z,90.82
2022-09-23T03:32:13.019Z,90.72
2022-09-23T03:33:09.751Z,90.72
2022-09-23T03:34:15.456Z,90.72
2022-09-23T03:35:08.907Z,90.82
2022-09-23T03:36:10.023Z,90.72
2022-09-23T03:37:09.473Z,90.41
2022-09-23T03:38:09.183Z,90.41
2022-09-23T03:39:09.145Z,90.41
2022-09-23T03:40:08.517Z,90.51
2022-09-23T03:41:08.211Z,90.51
2022-09-23T03:42:08.168Z,90.61
2022-09-23T03:43:08.133Z,90.61
2022-09-23T03:44:08.092Z,90.51
2022-09-23T03:45:10.259Z,90.51
2022-09-23T03:46:09.367Z,90.61
2022-09-23T03:47:09.221Z,90.51
2022-09-23T03:48:08.183Z,90.31
2022-09-23T03:49:09.141Z,90.10
2022-09-23T03:50:10.441Z,90.35
2022-09-23T03:51:11.748Z,90.55
2022-09-23T03:52:09.741Z,90.76
2022-09-23T03:53:09.274Z,90.86
2022-09-23T03:54:14.373Z,90.97
2022-09-23T03:55:08.662Z,90.86
2022-09-23T03:56:09.364Z,90.76
2022-09-23T03:57:09.040Z,90.97
2022-09-23T03:58:08.149Z,90.86
2022-09-23T03:59:08.233Z,90.66
2022-09-23T04:00:08.927Z,90.45
2022-09-23T04:01:19.975Z,90.35
2022-09-23T04:02:10.487Z,90.35
2022-09-23T04:03:11.545Z,90.55
2022-09-23T04:04:07.854Z,90.80
2022-09-23T04:05:08.032Z,91.01
2022-09-23T04:06:08.538Z,91.11
2022-09-23T04:07:08.797Z,91.32
2022-09-23T04:08:08.113Z,91.63
2022-09-23T04:09:08.057Z,91.94
2022-09-23T04:10:07.852Z,92.04
2022-09-23T04:11:07.676Z,92.04
2022-09-23T04:12:09.143Z,92.25
2022-09-23T04:13:07.946Z,92.35
2022-09-23T04:14:09.099Z,92.46
2022-09-23T04:15:07.831Z,92.35
2022-09-23T04:16:08.808Z,92.25
2022-09-23T04:17:08.717Z,92.14
2022-09-23T04:18:07.771Z,91.94
2022-09-23T04:19:11.478Z,91.73
2022-09-23T04:20:07.810Z,91.73
2022-09-23T04:21:07.662Z,91.73
2022-09-23T04:22:16.542Z,91.83
2022-09-23T04:23:07.582Z,91.94
2022-09-23T04:24:14.491Z,91.94
2022-09-23T04:25:08.515Z,92.04
2022-09-23T04:26:07.517Z,92.04
2022-09-23T04:27:08.162Z,91.83
2022-09-23T04:28:08.481Z,91.63
2022-09-23T04:29:14.138Z,91.73
2022-09-23T04:30:07.728Z,91.63
2022-09-23T04:31:07.760Z,91.63
2022-09-23T04:32:08.584Z,91.63
2022-09-23T04:33:07.750Z,91.73
2022-09-23T04:34:32.056Z,91.88
2022-09-23T04:35:07.393Z,91.98
2022-09-23T04:36:08.312Z,92.19
2022-09-23T04:37:07.520Z,92.40
2022-09-23T04:38:07.679Z,92.50
2022-09-23T04:39:07.799Z,92.60
2022-09-23T04:40:08.337Z,92.60
2022-09-23T04:41:07.368Z,92.40
2022-09-23T04:42:07.355Z,92.50
2022-09-23T04:43:12.876Z,92.40
2022-09-23T04:44:09.175Z,92.40
2022-09-23T04:45:08.551Z,92.19
2022-09-23T04:46:07.568Z,92.08
2022-09-23T04:47:54.285Z,92.08
2022-09-23T04:48:09.262Z,92.19
2022-09-23T04:49:08.065Z,92.19
2022-09-23T04:50:07.738Z,92.19
2022-09-23T04:51:10.571Z,92.19
2022-09-23T04:52:07.501Z,92.40
2022-09-23T04:53:07.981Z,92.60
2022-09-23T04:54:09.599Z,92.70
2022-09-23T04:55:11.213Z,92.80
2022-09-23T04:56:08.479Z,93.01
2022-09-23T04:57:07.237Z,93.22
2022-09-23T04:58:13.434Z,93.22
2022-09-23T04:59:08.566Z,93.22
2022-09-23T05:00:08.246Z,93.12
2022-09-23T05:01:08.434Z,93.12
2022-09-23T05:02:07.289Z,93.12
2022-09-23T05:03:07.716Z,92.80
2022-09-23T05:04:06.993Z,92.91
2022-09-23T05:05:07.367Z,92.70
2022-09-23T05:06:10.803Z,92.70
2022-09-23T05:07:15.461Z,92.70
2022-09-23T05:08:07.091Z,92.91
2022-09-23T05:09:07.217Z,93.12
2022-09-23T05:10:06.977Z,93.12
2022-09-23T05:11:08.023Z,92.91
2022-09-23T05:12:08.458Z,92.91
2022-09-23T05:13:07.090Z,92.91
2022-09-23T05:14:13.524Z,92.91
2022-09-23T05:15:07.279Z,92.91
2022-09-23T05:16:07.043Z,92.80
2022-09-23T05:17:07.097Z,92.91
2022-09-23T05:18:07.820Z,92.80
2022-09-23T05:19:08.036Z,92.60
2022-09-23T05:20:07.185Z,92.70
2022-09-23T05:21:07.289Z,92.70
2022-09-23T05:22:13.200Z,92.80
2022-09-23T05:23:08.219Z,92.70
2022-09-23T05:24:07.057Z,92.66
2022-09-23T05:25:07.181Z,92.66
2022-09-23T05:26:07.742Z,92.46
2022-09-23T05:27:06.867Z,92.46
2022-09-23T05:28:07.331Z,92.55
2022-09-23T05:29:09.113Z,92.46
2022-09-23T05:30:06.900Z,92.55
2022-09-23T05:31:09.722Z,92.66
2022-09-23T05:32:06.828Z,92.66
2022-09-23T05:33:06.745Z,92.66
2022-09-23T05:34:06.712Z,92.66
2022-09-23T05:35:07.690Z,92.66
2022-09-23T05:36:07.065Z,92.55
2022-09-23T05:37:09.092Z,92.66
2022-09-23T05:38:07.522Z,92.46
2022-09-23T05:39:07.812Z,92.35
2022-09-23T05:40:07.646Z,92.21
2022-09-23T05:41:08.270Z,92.00
2022-09-23T05:42:06.587Z,92.00
2022-09-23T05:43:06.948Z,91.89
2022-09-23T05:44:06.563Z,91.79
2022-09-23T05:45:16.113Z,91.69
2022-09-23T05:46:12.903Z,91.48
2022-09-23T05:47:06.549Z,91.48
2022-09-23T05:48:06.530Z,91.38
2022-09-23T05:49:06.600Z,91.28
2022-09-23T05:50:08.094Z,91.17
2022-09-23T05:51:06.556Z,91.17
2022-09-23T05:52:12.896Z,91.07
2022-09-23T05:53:07.067Z,91.28
2022-09-23T05:54:07.014Z,91.28
2022-09-23T05:55:12.149Z,91.38
2022-09-23T05:56:06.813Z,91.28
2022-09-23T05:57:07.197Z,91.17
2022-09-23T05:58:06.869Z,91.03
2022-09-23T05:59:06.978Z,91.03
2022-09-23T06:00:07.802Z,91.03
2022-09-23T06:01:13.785Z,90.92
2022-09-23T06:02:14.475Z,90.92
2022-09-23T06:03:07.939Z,91.03
2022-09-23T06:04:07.616Z,91.13
2022-09-23T06:05:06.617Z,91.03
2022-09-23T06:06:39.068Z,90.92
2022-09-23T06:07:07.533Z,90.92
2022-09-23T06:08:06.529Z,90.92
2022-09-23T06:09:06.465Z,90.92
2022-09-23T06:10:06.305Z,91.03
2022-09-23T06:11:06.606Z,91.13
2022-09-23T06:12:07.189Z,91.03
2022-09-23T06:13:08.111Z,90.92
2022-09-23T06:14:06.407Z,90.88
2022-09-23T06:15:06.428Z,90.99
2022-09-23T06:16:06.241Z,90.99
2022-09-23T06:17:06.292Z,91.09
2022-09-23T06:18:07.426Z,90.88
2022-09-23T06:19:07.194Z,90.88
2022-09-23T06:20:07.065Z,90.67
2022-09-23T06:21:06.227Z,90.78
2022-09-23T06:22:06.202Z,90.67
2022-09-23T06:23:08.849Z,90.57
2022-09-23T06:24:07.249Z,90.78
2022-09-23T06:25:07.193Z,90.99
2022-09-23T06:26:06.159Z,90.88
2022-09-23T06:27:11.207Z,90.67
2022-09-23T06:28:06.136Z,90.57
2022-09-23T06:29:07.771Z,90.67
2022-09-23T06:30:07.105Z,90.73
2022-09-23T06:31:12.265Z,90.84
2022-09-23T06:32:07.897Z,90.84
2022-09-23T06:33:06.275Z,90.64
2022-09-23T06:34:11.932Z,90.73
2022-09-23T06:35:20.565Z,90.84
2022-09-23T06:36:07.932Z,90.43
2022-09-23T06:37:15.510Z,90.33
2022-09-23T06:38:07.378Z,90.12
2022-09-23T06:39:05.950Z,90.12
2022-09-23T06:40:06.933Z,89.87
2022-09-23T06:41:06.964Z,89.87
2022-09-23T06:42:05.953Z,89.36
2022-09-23T06:43:05.824Z,89.36
2022-09-23T06:44:07.083Z,89.46
2022-09-23T06:45:06.211Z,89.46
2022-09-23T06:46:12.126Z,89.46
2022-09-23T06:47:06.949Z,89.77
2022-09-23T06:48:05.998Z,89.25
2022-09-23T06:49:05.936Z,89.05
2022-09-23T06:50:23.969Z,88.80
2022-09-23T06:51:05.978Z,88.59
2022-09-23T06:52:05.886Z,88.18
2022-09-23T06:53:07.770Z,88.29
2022-09-23T06:54:06.928Z,88.39
2022-09-23T06:55:06.263Z,88.39
2022-09-23T06:56:07.518Z,88.59
2022-09-23T06:57:08.752Z,88.29
2022-09-23T06:58:07.876Z,87.98
2022-09-23T06:59:05.757Z,88.04
2022-09-23T07:00:06.661Z,88.14
2022-09-23T07:01:06.176Z,88.35
2022-09-23T07:02:08.543Z,88.14
2022-09-23T07:03:07.087Z,87.94
2022-09-23T07:04:08.062Z,87.94
2022-09-23T07:05:07.403Z,87.94
2022-09-23T07:06:06.775Z,87.94
2022-09-23T07:07:05.677Z,87.79
2022-09-23T07:08:06.516Z,87.69
2022-09-23T07:09:12.509Z,87.79
2022-09-23T07:10:05.681Z,87.49
2022-09-23T07:11:05.644Z,87.59
2022-09-23T07:12:27.362Z,87.38
2022-09-23T07:13:05.519Z,87.59
2022-09-23T07:14:06.558Z,87.59
2022-09-23T07:15:07.365Z,87.04
2022-09-23T07:16:06.597Z,87.04
2022-09-23T07:17:06.323Z,86.72
2022-09-23T07:18:05.577Z,86.72
2022-09-23T07:19:08.159Z,86.62
2022-09-23T07:20:07.803Z,86.68
2022-09-23T07:21:06.327Z,86.58
2022-09-23T07:22:05.630Z,86.99
2022-09-23T07:23:18.134Z,86.89
2022-09-23T07:24:05.835Z,86.99
2022-09-23T07:25:06.903Z,86.48
2022-09-23T07:26:07.198Z,86.54
2022-09-23T07:27:06.481Z,86.95
2022-09-23T07:28:06.485Z,87.37
2022-09-23T07:29:05.730Z,86.24
2022-09-23T07:30:07.528Z,85.93
2022-09-23T07:31:06.286Z,86.13
2022-09-23T07:32:13.176Z,86.24
2022-09-23T07:33:27.083Z,86.24
2022-09-23T07:34:07.319Z,86.03
2022-09-23T07:35:05.618Z,85.78
2022-09-23T07:36:05.256Z,85.78
2022-09-23T07:37:06.228Z,85.68
2022-09-23T07:38:14.938Z,85.38
2022-09-23T07:39:13.380Z,85.27
2022-09-23T07:40:07.235Z,85.27
2022-09-23T07:41:05.058Z,85.13
2022-09-23T07:42:31.350Z,85.03
2022-09-23T07:43:12.898Z,85.64
2022-09-23T07:44:06.389Z,85.23
2022-09-23T07:45:05.760Z,85.03
2022-09-23T07:46:05.661Z,85.03
2022-09-23T07:47:06.707Z,84.92
2022-09-23T07:48:05.084Z,84.88
2022-09-23T07:49:08.839Z,84.78
2022-09-23T07:50:05.658Z,84.06
2022-09-23T07:51:06.643Z,84.27
2022-09-23T07:52:05.443Z,84.27
2022-09-23T07:53:05.631Z,83.65
2022-09-23T07:54:14.558Z,83.82
2022-09-23T07:55:04.944Z,83.72
2022-09-23T07:56:05.517Z,84.03
2022-09-23T07:57:05.148Z,84.12
2022-09-23T07:58:19.181Z,83.10
2022-09-23T07:59:15.579Z,83.10
2022-09-23T08:00:15.885Z,83.06
2022-09-23T08:01:05.778Z,83.17
2022-09-23T08:02:08.954Z,83.58
2022-09-23T08:03:06.621Z,83.37
2022-09-23T08:04:07.002Z,83.17
2022-09-23T08:05:05.860Z,83.17
2022-09-23T08:06:04.929Z,82.76
2022-09-23T08:07:05.320Z,82.71
2022-09-23T08:08:05.876Z,82.62
2022-09-23T08:09:07.727Z,82.41
2022-09-23T08:10:13.093Z,82.21
2022-09-23T08:11:15.191Z,82.10
2022-09-23T08:12:05.038Z,82.41
2022-09-23T08:13:04.769Z,82.21
2022-09-23T08:14:06.683Z,81.65
2022-09-23T08:15:05.811Z,81.56
2022-09-23T08:16:06.116Z,81.65
2022-09-23T08:17:04.644Z,81.35
2022-09-23T08:18:05.471Z,80.83
2022-09-23T08:19:12.706Z,80.53
2022-09-23T08:20:05.752Z,80.53
2022-09-23T08:21:06.311Z,80.80
2022-09-23T08:22:04.673Z,80.08
2022-09-23T08:23:10.243Z,79.68
2022-09-23T08:24:06.857Z,79.57
2022-09-23T08:25:06.608Z,79.68
2022-09-23T08:26:16.198Z,79.06
2022-09-23T08:27:07.806Z,78.65
2022-09-23T08:28:04.475Z,78.55
2022-09-23T08:29:04.295Z,78.55
2022-09-23T08:30:06.497Z,78.31
2022-09-23T08:31:05.435Z,78.52
2022-09-23T08:32:04.506Z,78.31
2022-09-23T08:33:12.293Z,77.59
2022-09-23T08:34:08.916Z,77.59
2022-09-23T08:35:04.506Z,77.19
2022-09-23T08:36:06.337Z,77.39
2022-09-23T08:37:06.265Z,77.59
2022-09-23T08:38:04.425Z,77.56
2022-09-23T08:39:12.150Z,77.86
2022-09-23T08:40:04.387Z,77.66
2022-09-23T08:41:10.693Z,77.66
2022-09-23T08:42:05.259Z,77.25
2022-09-23T08:43:04.652Z,77.04
2022-09-23T08:44:07.841Z,76.50
2022-09-23T08:45:04.817Z,76.70
2022-09-23T08:46:05.748Z,77.22
2022-09-23T08:47:05.318Z,76.09
2022-09-23T08:48:06.057Z,75.68
2022-09-23T08:49:12.031Z,75.68
2022-09-23T08:50:05.416Z,74.52
2022-09-23T08:51:04.488Z,74.11
2022-09-23T08:52:04.313Z,73.81
2022-09-23T08:53:04.199Z,74.01
2022-09-23T08:54:06.062Z,74.22
2022-09-23T08:55:14.680Z,74.22
2022-09-23T08:56:04.197Z,74.52
2022-09-23T08:57:04.443Z,74.90
2022-09-23T08:58:24.367Z,74.69
2022-09-23T08:59:06.119Z,74.18
2022-09-23T09:00:04.281Z,73.67
2022-09-23T09:01:10.572Z,73.36
2022-09-23T09:02:06.254Z,73.77
2022-09-23T09:03:05.271Z,73.88
2022-09-23T09:04:04.293Z,73.57
2022-09-23T09:05:05.723Z,73.47
2022-09-23T09:06:04.978Z,73.47
2022-09-23T09:07:31.686Z,73.54
2022-09-23T09:08:06.139Z,73.43
2022-09-23T09:09:04.211Z,72.62
2022-09-23T09:10:04.280Z,71.91
2022-09-23T09:11:04.460Z,72.82
2022-09-23T09:12:04.004Z,72.31
2022-09-23T09:13:12.238Z,72.41
2022-09-23T09:14:05.197Z,72.17
2022-09-23T09:15:04.773Z,72.38
2022-09-23T09:16:04.543Z,72.58
2022-09-23T09:17:04.913Z,72.79
2022-09-23T09:18:04.995Z,72.08
2022-09-23T09:19:04.024Z,72.24
2022-09-23T09:20:05.713Z,71.73
2022-09-23T09:21:05.667Z,70.61
2022-09-23T09:22:03.695Z,70.21
2022-09-23T09:23:05.939Z,70.31
2022-09-23T09:24:04.370Z,68.44
2022-09-23T09:25:05.767Z,67.52
2022-09-23T09:26:03.938Z,67.83
2022-09-23T09:27:05.369Z,68.04
2022-09-23T09:28:10.483Z,67.93
2022-09-23T09:29:17.094Z,68.04
2022-09-23T09:30:05.192Z,67.83
2022-09-23T09:31:04.183Z,67.73
2022-09-23T09:32:03.802Z,67.52
2022-09-23T09:33:04.905Z,68.24
2022-09-23T09:34:04.839Z,67.39
2022-09-23T09:35:03.524Z,67.19
2022-09-23T09:36:03.708Z,67.29
2022-09-23T09:37:07.003Z,66.78
2022-09-23T09:38:10.263Z,66.58
2022-09-23T09:39:03.849Z,66.27
2022-09-23T09:40:04.733Z,66.27
2022-09-23T09:41:03.762Z,66.27
2022-09-23T09:42:03.549Z,66.99
2022-09-23T09:43:03.931Z,66.14
2022-09-23T09:44:08.361Z,65.63
2022-09-23T09:45:05.561Z,65.53
2022-09-23T09:46:03.854Z,65.73
2022-09-23T09:47:03.554Z,65.22
2022-09-23T09:48:04.418Z,65.22
2022-09-23T09:49:03.362Z,64.81
2022-09-23T09:50:03.625Z,64.51
2022-09-23T09:51:09.903Z,64.31
2022-09-23T09:52:03.840Z,64.51
2022-09-23T09:53:04.374Z,64.48
2022-09-23T09:54:04.443Z,64.99
2022-09-23T09:55:03.695Z,65.50
2022-09-23T09:56:05.251Z,64.48
2022-09-23T09:57:04.526Z,63.74
2022-09-23T09:58:03.214Z,64.15
2022-09-23T09:59:03.793Z,63.33
2022-09-23T10:00:03.635Z,63.33
2022-09-23T10:01:03.571Z,62.82
2022-09-23T10:02:04.192Z,63.10
2022-09-23T10:03:03.410Z,62.18
2022-09-23T10:04:06.222Z,61.47
2022-09-23T10:05:03.169Z,61.78
2022-09-23T10:06:03.431Z,61.78
2022-09-23T10:07:03.944Z,61.37
2022-09-23T10:08:04.604Z,60.97
2022-09-23T10:09:03.145Z,60.13
2022-09-23T10:10:15.959Z,59.72
2022-09-23T10:11:04.072Z,59.92
2022-09-23T10:12:03.219Z,59.41
2022-09-23T10:13:05.522Z,59.92
2022-09-23T10:14:05.013Z,60.13
2022-09-23T10:15:10.357Z,60.53
2022-09-23T10:16:04.844Z,61.04
2022-09-23T10:17:03.018Z,59.52
2022-09-23T10:18:04.184Z,59.11
2022-09-23T10:19:03.098Z,58.58
2022-09-23T10:20:03.988Z,58.88
2022-09-23T10:21:04.552Z,58.06
2022-09-23T10:22:03.185Z,58.06
2022-09-23T10:23:04.766Z,57.66
2022-09-23T10:24:04.054Z,57.56
2022-09-23T10:25:03.217Z,57.56
2022-09-23T10:26:03.831Z,57.56
2022-09-23T10:27:03.135Z,57.15
2022-09-23T10:28:07.944Z,57.66
2022-09-23T10:29:03.830Z,57.84
2022-09-23T10:30:04.146Z,55.91
2022-09-23T10:31:03.749Z,55.20
2022-09-23T10:32:04.353Z,53.67
2022-09-23T10:33:06.605Z,53.98
2022-09-23T10:34:03.837Z,54.39
2022-09-23T10:35:11.432Z,54.18
2022-09-23T10:36:03.832Z,53.98
2022-09-23T10:37:04.112Z,52.66
2022-09-23T10:38:03.637Z,52.66
2022-09-23T10:39:03.718Z,52.56
2022-09-23T10:40:02.755Z,53.27
2022-09-23T10:41:04.227Z,52.53
2022-09-23T10:42:03.805Z,53.06
2022-09-23T10:43:03.851Z,53.06
2022-09-23T10:44:03.651Z,53.06
2022-09-23T10:45:02.973Z,53.27
2022-09-23T10:46:50.956Z,52.64
2022-09-23T10:47:50.989Z,52.13
2022-09-23T10:48:51.228Z,51.82
2022-09-23T10:49:54.212Z,51.52
2022-09-23T10:50:50.631Z,51.62
2022-09-23T10:51:51.813Z,51.82
2022-09-23T10:52:51.729Z,51.52
2022-09-23T10:53:50.824Z,52.20
2022-09-23T10:54:50.842Z,52.51
2022-09-23T10:55:50.403Z,52.61
2022-09-23T10:56:59.247Z,52.51
2022-09-23T10:57:51.619Z,51.50
2022-09-23T10:58:50.351Z,50.79
2022-09-23T10:59:50.324Z,50.68
2022-09-23T11:01:11.476Z,51.29
2022-09-23T11:01:51.185Z,51.09
2022-09-23T11:02:52.520Z,50.89
2022-09-23T11:03:50.584Z,50.35
2022-09-23T11:04:52.185Z,50.46
2022-09-23T11:05:50.567Z,50.15
2022-09-23T11:06:50.593Z,49.24
2022-09-23T11:07:50.730Z,49.75
2022-09-23T11:08:57.006Z,49.52
2022-09-23T11:09:50.854Z,49.93
2022-09-23T11:10:50.297Z,49.93
2022-09-23T11:11:50.225Z,49.11
2022-09-23T11:12:50.804Z,49.32
2022-09-23T11:13:54.605Z,48.61
2022-09-23T11:14:50.928Z,48.82
2022-09-23T11:15:54.878Z,49.73
2022-09-23T11:16:58.823Z,49.73
2022-09-23T11:17:50.656Z,50.43
2022-09-23T11:18:52.772Z,49.90
2022-09-23T11:19:50.306Z,49.30
2022-09-23T11:20:51.376Z,49.73
2022-09-23T11:21:50.320Z,49.60
2022-09-23T11:22:51.746Z,48.28
2022-09-23T11:23:52.890Z,48.79
2022-09-23T11:24:50.713Z,50.01
2022-09-23T11:25:51.000Z,48.79
2022-09-23T11:26:51.621Z,49.60
2022-09-23T11:27:50.470Z,49.32
2022-09-23T11:28:51.175Z,49.60
2022-09-23T11:29:51.299Z,49.80
2022-09-23T11:30:51.392Z,49.90
2022-09-23T11:31:50.658Z,50.51
2022-09-23T11:32:50.581Z,50.21
2022-09-23T11:33:50.760Z,50.11
2022-09-23T11:34:54.826Z,50.01
2022-09-23T11:35:50.234Z,50.38
2022-09-23T11:36:50.309Z,48.90
2022-09-23T11:37:55.675Z,49.70
2022-09-23T11:38:52.210Z,49.50
2022-09-23T11:39:51.761Z,49.19
2022-09-23T11:40:51.818Z,49.60
2022-09-23T11:41:49.940Z,49.60
2022-09-23T11:42:50.061Z,49.58
2022-09-23T11:43:51.141Z,50.09
2022-09-23T11:44:50.433Z,49.88
2022-09-23T11:45:59.623Z,49.98
2022-09-23T11:46:52.211Z,50.37
2022-09-23T11:47:49.951Z,49.76
2022-09-23T11:48:49.941Z,49.76
2022-09-23T11:49:51.339Z,49.86
2022-09-23T11:50:49.918Z,49.96
2022-09-23T11:51:57.882Z,50.46
2022-09-23T11:52:51.223Z,50.26
2022-09-23T11:53:50.737Z,49.96
2022-09-23T11:54:50.194Z,49.96
2022-09-23T11:55:57.071Z,49.96
2022-09-23T11:56:52.176Z,49.96
2022-09-23T11:57:50.931Z,49.25
2022-09-23T11:58:57.014Z,49.15
2022-09-23T11:59:52.080Z,49.15
2022-09-23T12:00:53.691Z,48.24
2022-09-23T12:01:53.554Z,48.54
2022-09-23T12:03:04.711Z,48.44
2022-09-23T12:03:52.019Z,49.15
2022-09-23T12:04:58.818Z,49.45
2022-09-23T12:05:49.688Z,49.35
2022-09-23T12:06:50.552Z,48.65
2022-09-23T12:07:50.871Z,49.15
2022-09-23T12:08:50.679Z,50.26
2022-09-23T12:09:58.513Z,49.76
2022-09-23T12:10:49.729Z,49.15
2022-09-23T12:11:49.780Z,49.25
2022-09-23T12:12:56.518Z,49.45
2022-09-23T12:13:50.044Z,49.55
2022-09-23T12:14:51.834Z,48.44
2022-09-23T12:15:50.374Z,49.05
2022-09-23T12:16:50.472Z,48.74
2022-09-23T12:17:49.593Z,49.53
2022-09-23T12:18:56.025Z,48.82
2022-09-23T12:19:50.203Z,48.52
2022-09-23T12:20:49.335Z,49.43
2022-09-23T12:21:56.069Z,49.33
2022-09-23T12:22:49.504Z,48.80
2022-09-23T12:23:49.218Z,48.39
2022-09-23T12:24:50.970Z,48.10
2022-09-23T12:25:50.395Z,47.28
2022-09-23T12:26:50.172Z,46.98
2022-09-23T12:27:49.961Z,47.49
2022-09-23T12:28:50.147Z,47.99
2022-09-23T12:29:49.371Z,48.70
2022-09-23T12:30:50.478Z,48.30
2022-09-23T12:31:49.161Z,48.37
2022-09-23T12:32:49.266Z,47.77
2022-09-23T12:33:49.590Z,47.16
2022-09-23T12:34:50.207Z,46.96
2022-09-23T12:35:59.971Z,47.26
2022-09-23T12:36:49.658Z,47.34
2022-09-23T12:37:49.108Z,47.34
2022-09-23T12:38:49.445Z,47.52
2022-09-23T12:39:49.754Z,47.12
2022-09-23T12:40:54.674Z,46.39
2022-09-23T12:41:50.241Z,45.36
2022-09-23T12:42:49.263Z,44.63
2022-09-23T12:43:50.217Z,43.68
2022-09-23T12:44:50.129Z,41.83
2022-09-23T12:45:51.342Z,43.02
2022-09-23T12:46:48.997Z,40.97
2022-09-23T12:47:50.028Z,40.31
2022-09-23T12:48:49.078Z,38.87
2022-09-23T12:49:49.425Z,38.05
2022-09-23T12:50:50.043Z,37.83
2022-09-23T12:51:56.684Z,37.21
2022-09-23T12:52:49.078Z,36.68
2022-09-23T12:53:49.354Z,35.26